createdAt,value
2023-10-30T00:00:25.960Z,98205.41
2023-10-30T00:02:52.723Z,98195.03
2023-10-30T00:05:19.492Z,98187.72
2023-10-30T00:07:46.161Z,98194.81
2023-10-30T00:10:13.043Z,98194.81
2023-10-30T00:12:39.811Z,98173.94
2023-10-30T00:15:07.287Z,98174.75
2023-10-30T00:17:34.180Z,98152.00
2023-10-30T00:20:00.927Z,98156.34
2023-10-30T00:22:27.765Z,98166.13
2023-10-30T00:24:56.610Z,98164.25
2023-10-30T00:27:23.394Z,98173.78
2023-10-30T00:29:50.540Z,98141.22
2023-10-30T00:32:17.388Z,98125.78
2023-10-30T00:34:44.152Z,98118.22
2023-10-30T00:37:11.488Z,98130.97
2023-10-30T00:39:38.566Z,98131.53
2023-10-30T00:42:06.055Z,98134.00
2023-10-30T00:44:32.861Z,98148.97
2023-10-30T00:47:00.305Z,98135.16
2023-10-30T00:49:27.256Z,98130.88
2023-10-30T00:51:54.025Z,98132.53
2023-10-30T00:54:20.802Z,98136.63
2023-10-30T00:56:47.595Z,98144.53
2023-10-30T00:59:14.332Z,98144.28
2023-10-30T01:01:41.102Z,98146.50
2023-10-30T01:04:08.819Z,98158.16
2023-10-30T01:06:35.781Z,98153.06
2023-10-30T01:09:02.511Z,98149.88
2023-10-30T01:11:29.877Z,98125.19
2023-10-30T01:13:56.543Z,98104.06
2023-10-30T01:16:23.300Z,98109.00
2023-10-30T01:18:50.023Z,98089.75
2023-10-30T01:21:17.022Z,98084.31
2023-10-30T01:23:43.728Z,98087.59
2023-10-30T01:26:10.426Z,98083.00
2023-10-30T01:28:37.052Z,98083.81
2023-10-30T01:31:05.994Z,98074.03
2023-10-30T01:33:33.045Z,98073.22
2023-10-30T01:35:59.840Z,98072.41
2023-10-30T01:38:26.626Z,98063.69
2023-10-30T01:40:54.618Z,98060.16
2023-10-30T01:43:32.544Z,98044.38
2023-10-30T01:45:59.609Z,98041.09
2023-10-30T01:48:29.191Z,98047.84
2023-10-30T01:50:57.160Z,98052.69
2023-10-30T01:53:24.669Z,98045.03
2023-10-30T01:55:52.505Z,98046.13
2023-10-30T01:58:19.830Z,98042.84
2023-10-30T02:00:47.497Z,98038.47
2023-10-30T02:03:14.511Z,98036.84
2023-10-30T02:05:42.268Z,98031.41
2023-10-30T02:08:10.414Z,98033.56
2023-10-30T02:10:39.753Z,98021.88
2023-10-30T02:13:08.947Z,98024.03
2023-10-30T02:15:36.131Z,98023.19
2023-10-30T02:18:03.468Z,98016.63
2023-10-30T02:20:30.341Z,98004.63
2023-10-30T02:22:57.038Z,98005.72
2023-10-30T02:25:24.097Z,97995.94
2023-10-30T02:27:54.139Z,97988.53
2023-10-30T02:30:21.487Z,97989.38
2023-10-30T02:32:48.982Z,97993.16
2023-10-30T02:35:18.043Z,97996.94
2023-10-30T02:37:46.093Z,97992.00
2023-10-30T02:40:13.308Z,97989.78
2023-10-30T02:42:41.199Z,97982.97
2023-10-30T02:45:08.587Z,97981.56
2023-10-30T02:47:35.903Z,97981.25
2023-10-30T02:50:02.936Z,97970.69
2023-10-30T02:52:31.061Z,97977.19
2023-10-30T02:54:58.152Z,97966.34
2023-10-30T02:57:24.895Z,97958.22
2023-10-30T02:59:51.673Z,97953.34
2023-10-30T03:02:19.047Z,97946.00
2023-10-30T03:04:45.858Z,97955.53
2023-10-30T03:07:16.748Z,97945.50
2023-10-30T03:09:43.630Z,97955.03
2023-10-30T03:12:10.704Z,97942.06
2023-10-30T03:14:37.802Z,97929.06
2023-10-30T03:17:05.197Z,97928.00
2023-10-30T03:19:31.953Z,97937.53
2023-10-30T03:21:58.578Z,97932.66
2023-10-30T03:24:25.287Z,97932.66
2023-10-30T03:26:52.555Z,97924.28
2023-10-30T03:29:19.313Z,97915.31
2023-10-30T03:31:46.103Z,97912.63
2023-10-30T03:34:13.232Z,97902.00
2023-10-30T03:36:40.048Z,97894.94
2023-10-30T03:39:06.783Z,97888.97
2023-10-30T03:41:33.475Z,97885.69
2023-10-30T03:44:00.152Z,97882.41
2023-10-30T03:46:26.857Z,97886.19
2023-10-30T03:48:53.511Z,97870.66
2023-10-30T03:51:20.174Z,97885.28
2023-10-30T03:53:47.182Z,97883.94
2023-10-30T03:56:13.919Z,97879.03
2023-10-30T03:58:40.742Z,97880.34
2023-10-30T04:01:08.425Z,97881.66
2023-10-30T04:03:35.734Z,97866.47
2023-10-30T04:06:03.939Z,97863.75
2023-10-30T04:08:30.774Z,97862.13
2023-10-30T04:10:57.762Z,97856.69
2023-10-30T04:13:24.605Z,97852.34
2023-10-30T04:15:51.340Z,97845.03
2023-10-30T04:18:18.113Z,97849.38
2023-10-30T04:20:45.575Z,97847.50
2023-10-30T04:23:12.208Z,97843.72
2023-10-30T04:25:38.872Z,97842.06
2023-10-30T04:28:05.523Z,97849.13
2023-10-30T04:30:32.478Z,97839.94
2023-10-30T04:32:59.154Z,97837.22
2023-10-30T04:35:28.371Z,97838.28
2023-10-30T04:37:55.127Z,97841.56
2023-10-30T04:40:21.789Z,97831.78
2023-10-30T04:42:48.494Z,97826.94
2023-10-30T04:45:15.249Z,97836.16
2023-10-30T04:47:42.073Z,97828.84
2023-10-30T04:50:08.939Z,97828.00
2023-10-30T04:52:35.652Z,97826.94
2023-10-30T04:55:02.341Z,97821.53
2023-10-30T04:57:29.430Z,97829.16
2023-10-30T04:59:56.317Z,97832.44
2023-10-30T05:02:23.336Z,97832.97
2023-10-30T05:04:50.138Z,97830.81
2023-10-30T05:07:16.894Z,97831.38
2023-10-30T05:09:43.568Z,97835.22
2023-10-30T05:12:10.285Z,97833.09
2023-10-30T05:14:36.988Z,97830.69
2023-10-30T05:17:03.748Z,97835.88
2023-10-30T05:19:30.476Z,97833.72
2023-10-30T05:21:57.173Z,97829.69
2023-10-30T05:24:24.793Z,97825.63
2023-10-30T05:26:53.697Z,97832.44
2023-10-30T05:29:20.473Z,97822.41
2023-10-30T05:31:47.224Z,97815.09
2023-10-30T05:34:14.060Z,97823.00
2023-10-30T05:36:40.964Z,97819.19
2023-10-30T05:39:07.798Z,97820.03
2023-10-30T05:41:34.578Z,97819.75
2023-10-30T05:44:01.300Z,97811.63
2023-10-30T05:46:28.040Z,97820.59
2023-10-30T05:48:54.791Z,97823.28
2023-10-30T05:51:21.476Z,97821.66
2023-10-30T05:53:48.618Z,97823.56
2023-10-30T05:56:15.308Z,97820.84
2023-10-30T05:58:42.077Z,97825.75
2023-10-30T06:01:08.969Z,97812.19
2023-10-30T06:03:35.744Z,97825.25
2023-10-30T06:06:03.116Z,97816.53
2023-10-30T06:08:29.943Z,97816.53
2023-10-30T06:10:56.650Z,97806.50
2023-10-30T06:13:23.319Z,97825.75
2023-10-30T06:15:50.789Z,97824.13
2023-10-30T06:18:17.739Z,97832.50
2023-10-30T06:20:47.562Z,97821.91
2023-10-30T06:23:14.367Z,97818.38
2023-10-30T06:25:41.187Z,97815.91
2023-10-30T06:28:09.998Z,97821.84
2023-10-30T06:30:37.413Z,97827.28
2023-10-30T06:33:04.170Z,97839.47
2023-10-30T06:35:30.866Z,97835.34
2023-10-30T06:37:57.565Z,97837.50
2023-10-30T06:40:24.342Z,97834.22
2023-10-30T06:42:51.012Z,97834.72
2023-10-30T06:45:17.787Z,97835.22
2023-10-30T06:47:45.382Z,97841.16
2023-10-30T06:50:12.040Z,97863.34
2023-10-30T06:52:38.700Z,97855.75
2023-10-30T06:55:06.295Z,97871.19
2023-10-30T06:57:33.029Z,97864.38
2023-10-30T06:59:59.742Z,97861.94
2023-10-30T07:02:27.158Z,97863.25
2023-10-30T07:04:54.163Z,97873.78
2023-10-30T07:07:20.913Z,97871.31
2023-10-30T07:09:47.589Z,97865.31
2023-10-30T07:12:14.269Z,97872.63
2023-10-30T07:14:41.079Z,97881.84
2023-10-30T07:17:07.882Z,97884.31
2023-10-30T07:19:34.597Z,97891.38
2023-10-30T07:22:03.669Z,97894.63
2023-10-30T07:24:30.534Z,97897.91
2023-10-30T07:26:59.092Z,97896.59
2023-10-30T07:29:25.822Z,97903.66
2023-10-30T07:31:53.894Z,97909.66
2023-10-30T07:34:20.526Z,97909.41
2023-10-30T07:36:47.254Z,97926.25
2023-10-30T07:39:14.008Z,97934.09
2023-10-30T07:41:40.655Z,97919.22
2023-10-30T07:44:10.574Z,97933.09
2023-10-30T07:46:37.298Z,97936.13
2023-10-30T07:49:05.581Z,97925.84
2023-10-30T07:51:32.650Z,97924.28
2023-10-30T07:54:00.053Z,97923.22
2023-10-30T07:56:26.980Z,97925.41
2023-10-30T07:58:53.780Z,97940.13
2023-10-30T08:01:21.833Z,97936.91
2023-10-30T08:03:48.901Z,97940.19
2023-10-30T08:06:16.015Z,97944.03
2023-10-30T08:08:42.901Z,97957.09
2023-10-30T08:11:12.382Z,97965.81
2023-10-30T08:13:41.214Z,97970.47
2023-10-30T08:16:07.901Z,97978.09
2023-10-30T08:18:34.619Z,97989.28
2023-10-30T08:21:07.427Z,97990.41
2023-10-30T08:23:38.178Z,97995.34
2023-10-30T08:26:07.332Z,97994.84
2023-10-30T08:28:35.169Z,98000.59
2023-10-30T08:31:02.296Z,97991.94
2023-10-30T08:33:29.216Z,97987.91
2023-10-30T08:35:56.041Z,97980.31
2023-10-30T08:38:22.755Z,97996.59
2023-10-30T08:40:49.541Z,97994.47
2023-10-30T08:43:16.289Z,98000.47
2023-10-30T08:45:43.017Z,98012.69
2023-10-30T08:48:19.133Z,98008.91
2023-10-30T08:50:46.894Z,98007.66
2023-10-30T08:53:13.747Z,98011.25
2023-10-30T08:55:45.072Z,98024.56
2023-10-30T08:58:11.651Z,98026.59
2023-10-30T09:00:38.712Z,98036.19
2023-10-30T09:03:06.196Z,98040.03
2023-10-30T09:05:33.178Z,98042.56
2023-10-30T09:07:59.948Z,98036.38
2023-10-30T09:10:30.082Z,98041.88
2023-10-30T09:12:57.150Z,98042.75
2023-10-30T09:15:24.118Z,98052.84
2023-10-30T09:17:51.655Z,98052.91
2023-10-30T09:20:18.346Z,98056.78
2023-10-30T09:22:45.023Z,98054.38
2023-10-30T09:25:11.713Z,98046.78
2023-10-30T09:27:39.647Z,98044.63
2023-10-30T09:30:07.500Z,98047.09
2023-10-30T09:32:34.194Z,98049.56
2023-10-30T09:35:01.056Z,98045.78
2023-10-30T09:37:27.715Z,98052.59
2023-10-30T09:39:54.471Z,98058.34
2023-10-30T09:42:21.315Z,98062.69
2023-10-30T09:44:48.486Z,98067.88
2023-10-30T09:47:15.826Z,98068.69
2023-10-30T09:49:44.981Z,98068.44
2023-10-30T09:52:12.794Z,98067.09
2023-10-30T09:54:42.115Z,98059.53
2023-10-30T09:57:09.500Z,98065.25
2023-10-30T09:59:38.214Z,98055.78
2023-10-30T10:02:05.330Z,98053.38
2023-10-30T10:04:35.186Z,98071.88
2023-10-30T10:07:02.338Z,98074.91
2023-10-30T10:09:29.185Z,98076.88
2023-10-30T10:11:56.106Z,98074.19
2023-10-30T10:14:22.855Z,98077.53
2023-10-30T10:16:50.457Z,98077.03
2023-10-30T10:19:22.210Z,98063.47
2023-10-30T10:21:52.978Z,98064.09
2023-10-30T10:24:34.292Z,98064.22
2023-10-30T10:27:05.819Z,98059.06
2023-10-30T10:29:36.899Z,98064.28
2023-10-30T10:32:03.950Z,98072.53
2023-10-30T10:34:32.494Z,98074.50
2023-10-30T10:37:00.949Z,98089.00
2023-10-30T10:39:27.962Z,98082.56
2023-10-30T10:41:56.285Z,98085.59
2023-10-30T10:44:24.763Z,98089.97
2023-10-30T10:46:53.356Z,98096.25
2023-10-30T10:49:20.106Z,98097.94
2023-10-30T10:51:47.882Z,98109.94
2023-10-30T10:54:20.981Z,98095.25
2023-10-30T10:56:52.233Z,98116.75
2023-10-30T10:59:22.488Z,98117.59
2023-10-30T11:01:52.957Z,98120.31
2023-10-30T11:04:20.137Z,98127.66
2023-10-30T11:06:54.075Z,98138.00
2023-10-30T11:09:26.238Z,98129.78
2023-10-30T11:12:08.442Z,98137.94
2023-10-30T11:15:04.728Z,98136.00
2023-10-30T11:17:32.022Z,98159.94
2023-10-30T11:20:09.156Z,98161.25
2023-10-30T11:22:40.569Z,98169.06
2023-10-30T11:25:40.336Z,98171.59
2023-10-30T11:28:09.040Z,98182.34
2023-10-30T11:30:46.011Z,98196.91
2023-10-30T11:33:20.630Z,98201.38
2023-10-30T11:35:51.447Z,98200.13
2023-10-30T11:38:19.978Z,98192.66
2023-10-30T11:41:04.683Z,98176.78
2023-10-30T11:43:35.116Z,98184.56
2023-10-30T11:46:07.323Z,98178.75
2023-10-30T11:48:37.241Z,98186.78
2023-10-30T11:51:04.316Z,98176.34
2023-10-30T11:53:31.070Z,98177.34
2023-10-30T11:55:59.080Z,98172.09
2023-10-30T11:58:26.550Z,98157.94
2023-10-30T12:00:53.856Z,98154.09
2023-10-30T12:03:20.518Z,98151.38
2023-10-30T12:05:47.207Z,98142.97
2023-10-30T12:08:14.405Z,98133.25
2023-10-30T12:10:41.656Z,98133.88
2023-10-30T12:13:11.619Z,98122.00
2023-10-30T12:15:38.638Z,98118.84
2023-10-30T12:18:06.248Z,98107.47
2023-10-30T12:20:33.120Z,98113.22
2023-10-30T12:22:59.979Z,98113.03
2023-10-30T12:25:26.653Z,98108.75
2023-10-30T12:28:01.806Z,98097.31
2023-10-30T12:30:35.291Z,98095.91
2023-10-30T12:33:02.158Z,98099.44
2023-10-30T12:35:29.031Z,98104.06
2023-10-30T12:37:55.798Z,98105.97
2023-10-30T12:40:22.659Z,98104.31
2023-10-30T12:42:50.346Z,98109.75
2023-10-30T12:45:19.331Z,98113.03
2023-10-30T12:47:47.535Z,98113.84
2023-10-30T12:50:18.847Z,98124.72
2023-10-30T12:52:46.213Z,98139.63
2023-10-30T12:55:14.446Z,98144.50
2023-10-30T12:57:41.769Z,98133.56
2023-10-30T13:00:10.674Z,98143.63
2023-10-30T13:02:37.997Z,98147.66
2023-10-30T13:05:05.274Z,98147.66
2023-10-30T13:07:34.308Z,98155.75
2023-10-30T13:10:01.103Z,98151.31
2023-10-30T13:12:28.088Z,98161.22
2023-10-30T13:14:54.827Z,98171.38
2023-10-30T13:17:22.441Z,98185.03
2023-10-30T13:19:49.161Z,98182.19
2023-10-30T13:22:15.934Z,98189.56
2023-10-30T13:24:42.715Z,98197.78
2023-10-30T13:27:09.520Z,98207.66
2023-10-30T13:29:36.187Z,98201.00
2023-10-30T13:32:02.826Z,98208.94
2023-10-30T13:34:29.672Z,98212.88
2023-10-30T13:36:56.577Z,98204.34
2023-10-30T13:39:23.222Z,98213.69
2023-10-30T13:41:49.898Z,98210.53
2023-10-30T13:44:18.419Z,98213.97
2023-10-30T13:46:46.226Z,98224.47
2023-10-30T13:49:14.011Z,98223.25
2023-10-30T13:51:41.948Z,98240.47
2023-10-30T13:54:08.646Z,98243.66
2023-10-30T13:56:35.385Z,98234.38
2023-10-30T13:59:02.557Z,98231.09
2023-10-30T14:01:29.380Z,98224.50
2023-10-30T14:03:56.273Z,98210.38
2023-10-30T14:06:23.352Z,98235.81
2023-10-30T14:08:50.043Z,98271.50
2023-10-30T14:11:16.836Z,98274.22
2023-10-30T14:13:44.579Z,98277.16
2023-10-30T14:16:11.641Z,98263.84
2023-10-30T14:18:40.953Z,98276.34
2023-10-30T14:21:08.286Z,98277.63
2023-10-30T14:23:34.911Z,98275.16
2023-10-30T14:26:01.652Z,98262.44
2023-10-30T14:28:28.435Z,98240.53
2023-10-30T14:30:55.185Z,98228.88
2023-10-30T14:33:21.845Z,98224.28
2023-10-30T14:35:48.559Z,98218.28
2023-10-30T14:38:15.205Z,98224.75
2023-10-30T14:40:41.873Z,98245.84
2023-10-30T14:43:10.127Z,98254.44
2023-10-30T14:45:37.142Z,98263.63
2023-10-30T14:48:04.758Z,98244.66
2023-10-30T14:50:31.723Z,98258.22
2023-10-30T14:52:58.381Z,98272.81
2023-10-30T14:55:25.946Z,98293.88
2023-10-30T14:57:52.661Z,98301.44
2023-10-30T15:00:19.891Z,98310.13
2023-10-30T15:02:46.832Z,98311.78
2023-10-30T15:05:14.036Z,98318.84
2023-10-30T15:07:41.072Z,98319.69
2023-10-30T15:10:08.682Z,98326.97
2023-10-30T15:12:35.418Z,98332.41
2023-10-30T15:15:03.379Z,98328.03
2023-10-30T15:17:35.191Z,98328.03
2023-10-30T15:20:03.449Z,98329.09
2023-10-30T15:22:30.112Z,98342.03
2023-10-30T15:24:56.831Z,98345.22
2023-10-30T15:27:27.082Z,98344.63
2023-10-30T15:29:54.032Z,98355.94
2023-10-30T15:32:20.797Z,98362.41
2023-10-30T15:34:48.296Z,98356.66
2023-10-30T15:37:15.350Z,98366.06
2023-10-30T15:39:42.633Z,98375.72
2023-10-30T15:42:09.373Z,98359.13
2023-10-30T15:44:36.117Z,98357.94
2023-10-30T15:47:14.397Z,98353.81
2023-10-30T15:49:45.368Z,98347.22
2023-10-30T15:59:46.878Z,98351.91
2023-10-30T16:02:13.978Z,98354.25
2023-10-30T16:04:43.604Z,98357.19
2023-10-30T16:07:27.571Z,98371.63
2023-10-30T16:10:11.986Z,98373.75
2023-10-30T16:12:40.983Z,98383.84
2023-10-30T16:15:10.821Z,98368.53
2023-10-30T16:17:38.737Z,98374.16
2023-10-30T16:22:40.444Z,98376.50
2023-10-30T16:25:07.806Z,98378.03
2023-10-30T16:27:34.958Z,98378.47
2023-10-30T16:30:03.112Z,98388.25
2023-10-30T16:32:30.704Z,98382.84
2023-10-30T16:34:57.673Z,98399.06
2023-10-30T16:37:24.467Z,98398.47
2023-10-30T16:39:51.322Z,98405.75
2023-10-30T16:42:19.126Z,98404.31
2023-10-30T16:44:48.016Z,98415.13
2023-10-30T16:47:16.046Z,98406.41
2023-10-30T16:49:43.009Z,98416.63
2023-10-30T16:52:10.813Z,98431.44
2023-10-30T16:54:37.766Z,98448.69
2023-10-30T16:57:04.739Z,98455.63
2023-10-30T16:59:32.072Z,98448.81
2023-10-30T17:01:59.061Z,98464.88
2023-10-30T17:04:26.136Z,98457.22
2023-10-30T17:06:52.841Z,98470.59
2023-10-30T17:09:19.645Z,98465.03
2023-10-30T17:11:46.334Z,98471.50
2023-10-30T17:14:13.032Z,98480.03
2023-10-30T17:16:39.761Z,98475.09
2023-10-30T17:19:06.478Z,98473.44
2023-10-30T17:21:33.173Z,98472.81
2023-10-30T17:23:59.943Z,98484.47
2023-10-30T17:26:26.692Z,98499.03
2023-10-30T17:28:53.441Z,98491.16
2023-10-30T17:31:20.219Z,98491.16
2023-10-30T17:33:46.857Z,98488.66
2023-10-30T17:36:14.880Z,98503.22
2023-10-30T17:38:42.226Z,98509.91
2023-10-30T17:41:09.067Z,98513.66
2023-10-30T17:43:35.970Z,98506.81
2023-10-30T17:46:02.717Z,98523.25
2023-10-30T17:48:29.426Z,98529.09
2023-10-30T17:50:56.420Z,98535.56
2023-10-30T17:53:23.173Z,98527.44
2023-10-30T17:55:50.829Z,98519.56
2023-10-30T17:58:17.871Z,98531.19
2023-10-30T18:00:44.674Z,98524.97
2023-10-30T18:03:11.530Z,98532.25
2023-10-30T18:05:38.494Z,98529.97
2023-10-30T18:08:05.439Z,98527.28
2023-10-30T18:10:32.395Z,98526.66
2023-10-30T18:12:59.154Z,98521.28
2023-10-30T18:15:26.133Z,98539.34
2023-10-30T18:17:54.654Z,98530.41
2023-10-30T18:20:21.478Z,98537.47
2023-10-30T18:22:48.181Z,98531.47
2023-10-30T18:25:14.880Z,98543.31
2023-10-30T18:27:41.646Z,98537.09
2023-10-30T18:30:09.869Z,98537.09
2023-10-30T18:32:36.523Z,98545.41
2023-10-30T18:35:04.102Z,98533.78
2023-10-30T18:37:31.295Z,98530.25
2023-10-30T18:39:58.054Z,98535.06
2023-10-30T18:42:24.949Z,98536.31
2023-10-30T18:44:51.806Z,98539.25
2023-10-30T18:47:18.642Z,98544.03
2023-10-30T18:49:45.480Z,98536.38
2023-10-30T18:52:12.195Z,98535.53
2023-10-30T18:54:38.921Z,98540.13
2023-10-30T18:57:07.245Z,98537.84
2023-10-30T18:59:35.150Z,98553.00
2023-10-30T19:02:01.893Z,98542.66
2023-10-30T19:04:28.759Z,98550.13
2023-10-30T19:06:55.472Z,98552.00
2023-10-30T19:09:22.231Z,98563.03
2023-10-30T19:11:52.109Z,98562.19
2023-10-30T19:14:18.875Z,98569.69
2023-10-30T19:16:45.550Z,98570.97
2023-10-30T19:19:12.385Z,98574.69
2023-10-30T19:21:39.341Z,98569.78
2023-10-30T19:24:06.346Z,98575.59
2023-10-30T19:26:33.152Z,98576.88
2023-10-30T19:28:59.899Z,98583.53
2023-10-30T19:31:26.678Z,98586.66
2023-10-30T19:33:53.360Z,98594.16
2023-10-30T19:36:21.512Z,98596.22
2023-10-30T19:38:48.160Z,98602.06
2023-10-30T19:41:14.863Z,98611.19
2023-10-30T19:43:41.816Z,98606.84
2023-10-30T19:46:08.585Z,98608.94
2023-10-30T19:48:35.401Z,98605.41
2023-10-30T19:51:02.289Z,98608.94
2023-10-30T19:53:29.004Z,98609.34
2023-10-30T19:55:56.272Z,98613.09
2023-10-30T19:58:25.811Z,98615.19
2023-10-30T20:00:57.232Z,98609.78
2023-10-30T20:03:23.719Z,98607.09
2023-10-30T20:05:50.384Z,98606.91
2023-10-30T20:08:17.099Z,98609.81
2023-10-30T20:10:44.107Z,98608.56
2023-10-30T20:13:11.075Z,98605.66
2023-10-30T20:15:37.761Z,98608.13
2023-10-30T20:18:04.648Z,98604.38
2023-10-30T20:20:31.328Z,98610.44
2023-10-30T20:22:58.096Z,98610.44
2023-10-30T20:25:24.954Z,98612.91
2023-10-30T20:27:51.848Z,98611.03
2023-10-30T20:30:18.637Z,98611.03
2023-10-30T20:32:45.407Z,98611.88
2023-10-30T20:35:14.297Z,98618.09
2023-10-30T20:37:41.971Z,98611.03
2023-10-30T20:40:09.344Z,98611.88
2023-10-30T20:42:36.639Z,98604.81
2023-10-30T20:45:03.750Z,98608.34
2023-10-30T20:47:30.668Z,98616.44
2023-10-30T20:49:57.349Z,98620.59
2023-10-30T20:52:26.003Z,98621.41
2023-10-30T20:54:53.205Z,98624.13
2023-10-30T20:57:19.963Z,98622.84
2023-10-30T20:59:46.660Z,98628.03
2023-10-30T21:02:13.687Z,98635.94
2023-10-30T21:04:41.679Z,98632.19
2023-10-30T21:07:08.510Z,98641.94
2023-10-30T21:09:35.259Z,98646.28
2023-10-30T21:12:01.920Z,98646.50
2023-10-30T21:14:28.575Z,98654.59
2023-10-30T21:16:56.424Z,98660.00
2023-10-30T21:19:24.877Z,98660.00
2023-10-30T21:21:51.551Z,98666.22
2023-10-30T21:24:18.217Z,98669.97
2023-10-30T21:26:44.844Z,98675.38
2023-10-30T21:29:13.944Z,98668.31
2023-10-30T21:31:42.034Z,98675.78
2023-10-30T21:34:08.700Z,98681.41
2023-10-30T21:36:35.319Z,98673.53
2023-10-30T21:39:01.971Z,98673.75
2023-10-30T21:41:28.701Z,98683.69
2023-10-30T21:43:55.418Z,98695.53
2023-10-30T21:46:22.148Z,98688.69
2023-10-30T21:48:48.835Z,98691.56
2023-10-30T21:51:15.490Z,98701.75
2023-10-30T21:53:42.204Z,98703.63
2023-10-30T21:56:09.013Z,98707.34
2023-10-30T21:58:35.759Z,98708.63
2023-10-30T22:01:02.450Z,98714.44
2023-10-30T22:03:29.324Z,98714.84
2023-10-30T22:05:56.291Z,98722.75
2023-10-30T22:08:23.632Z,98717.78
2023-10-30T22:10:51.037Z,98722.75
2023-10-30T22:13:17.695Z,98722.13
2023-10-30T22:15:46.455Z,98731.28
2023-10-30T22:18:13.251Z,98734.19
2023-10-30T22:20:39.920Z,98729.81
2023-10-30T22:23:06.841Z,98738.94
2023-10-30T22:25:33.715Z,98733.97
2023-10-30T22:28:00.572Z,98732.31
2023-10-30T22:30:27.774Z,98737.28
2023-10-30T22:32:54.583Z,98729.22
2023-10-30T22:35:21.236Z,98729.41
2023-10-30T22:37:48.072Z,98726.72
2023-10-30T22:40:14.791Z,98731.06
2023-10-30T22:42:41.613Z,98722.97
2023-10-30T22:45:09.505Z,98721.13
2023-10-30T22:47:36.194Z,98727.75
2023-10-30T22:50:03.037Z,98722.38
2023-10-30T22:52:29.794Z,98724.22
2023-10-30T22:54:56.545Z,98735.22
2023-10-30T22:57:23.253Z,98744.34
2023-10-30T22:59:49.925Z,98751.81
2023-10-30T23:02:16.658Z,98762.81
2023-10-30T23:04:43.744Z,98761.38
2023-10-30T23:07:12.843Z,98771.75
2023-10-30T23:09:39.524Z,98761.38
2023-10-30T23:12:06.541Z,98768.66
2023-10-30T23:14:33.184Z,98771.34
2023-10-30T23:17:01.662Z,98778.41
2023-10-30T23:19:28.321Z,98766.78
2023-10-30T23:21:56.261Z,98779.22
2023-10-30T23:24:23.200Z,98782.56
2023-10-30T23:26:49.949Z,98783.38
2023-10-30T23:29:16.659Z,98790.22
2023-10-30T23:31:43.398Z,98790.00
2023-10-30T23:34:10.122Z,98789.56
2023-10-30T23:36:37.952Z,98809.69
2023-10-30T23:39:04.860Z,98812.00
2023-10-30T23:41:31.548Z,98816.97
2023-10-30T23:43:58.220Z,98825.69
2023-10-30T23:46:31.803Z,98842.50
2023-10-30T23:49:05.698Z,98872.16
2023-10-30T23:51:32.374Z,98877.56
2023-10-30T23:53:59.016Z,98878.19
2023-10-30T23:56:25.798Z,98883.56
2023-10-30T23:58:52.584Z,98885.44
